• Join FlightAware (Why Join?)
  • Login
  • US Flag 
06:13AM EDT


 

Airport Tracker/Info


-or-


 

Live Flight TrackerFlight Track Log ✈ SWA508 ✈ 05-Dec-2013 ✈ KOAK - KBUR

Flight Track Log - Related Links

Times and Time Zones

All times are in EST time to prevent confusion due to time zone crossing. See the SWA508 flight status page for this flight to view local times or setup timezone preferences in your user account.

Time Position Orientation Groundspeed Altitude Reporting Facility
EST Latitude Longitude Course Direction KTS MPH feet Rate Location/Type
05:44PM 37.7333 -122.2500 288° West 167 192 1,200  Level Northern Cal TRACON
05:45PM 37.7500 -122.3167 288° West 215 247 3,300 2,280 Climbing Northern Cal TRACON
05:46PM 37.7167 -122.3833 238° Southwest 252 290 6,100 2,280 Climbing Northern Cal TRACON
05:47PM 37.6811 -122.3906 189° South 258 297 7,100 2,220 Climbing Oakland Center
05:48PM 37.5975 -122.4156 193° South 302 348 9,700 2,400 Climbing Oakland Center
05:49PM 37.4969 -122.4106 178° South 360 414 12,000 2,460 Climbing Oakland Center
05:50PM 37.3731 -122.3644 164° South 398 458 14,800 2,520 Climbing Oakland Center
05:51PM 37.2875 -122.2639 137° Southeast 420 483 17,200 2,100 Climbing Oakland Center
05:52PM 37.1989 -122.1622 138° Southeast 431 496 19,200 1,920 Climbing Oakland Center
05:53PM 37.1047 -122.0569 138° Southeast 450 518 21,200 1,860 Climbing Oakland Center
05:54PM 37.0086 -121.9489 138° Southeast 465 535 23,000 1,620 Climbing Oakland Center
05:55PM 36.9100 -121.8358 137° Southeast 479 551 24,600 1,500 Climbing Oakland Center
05:56PM 36.8064 -121.7286 140° Southeast 501 577 26,100 1,380 Climbing Oakland Center
05:57PM 36.7031 -121.6117 138° Southeast 504 580 27,500 1,260 Climbing Oakland Center
05:58PM 36.5731 -121.4681 138° Southeast 523 602 28,800 1,320 Climbing Oakland Center
05:59PM 36.4633 -121.3469 138° Southeast 530 610 30,300 1,560 Climbing Oakland Center
06:00PM 36.3558 -121.2283 138° Southeast 521 600 32,000 1,320 Climbing Oakland Center
06:01PM 36.2478 -121.1100 139° Southeast 521 600 33,000 480 Climbing Oakland Center
06:02PM 36.1317 -121.0044 144° Southeast 532 612 33,000  Level Oakland Center
06:03PM 36.0033 -120.9244 153° Southeast 520 598 33,000  Level Oakland Center
06:04PM 35.8978 -120.8042 137° Southeast 517 595 33,000  Level Oakland Center
06:05PM 35.7950 -120.6814 136° Southeast 518 596 33,000  Level Oakland Center
06:06PM 35.6708 -120.5347 136° Southeast 517 595 33,000  Level Oakland Center
06:07PM 35.5661 -120.4128 137° Southeast 516 594 33,000  Level Oakland Center
06:08PM 35.4650 -120.2967 137° Southeast 514 592 33,000  Level Oakland Center
06:09PM 35.3517 -120.1622 136° Southeast 526 605 33,000  Level Oakland Center
06:10PM 35.2436 -120.0383 137° Southeast 528 608 33,000 -1,200 Level Oakland Center
06:11PM 35.1378 -119.9175 137° Southeast 521 600 30,600 -3,000 Descending Oakland Center
06:12PM 35.0369 -119.7911 134° Southeast 519 597 26,900 -3,300 Descending Oakland Center
06:13PM 34.9414 -119.6608 132° Southeast 519 597 23,900 -2,820 Descending Oakland Center
06:14PM 34.8494 -119.5383 132° Southeast 501 577 21,200 -2,700 Descending Oakland Center
06:15PM 34.7628 -119.4208 132° Southeast 477 549 18,500 -2,580 Descending Oakland Center
06:16PM 34.6794 -119.3075 132° Southeast 459 528 16,000 -2,280 Descending Oakland Center
06:17PM 34.6475 -119.2631 131° Southeast 450 518 14,800 -2,580 Descending Los Angeles Center
06:18PM 34.5506 -119.1400 134° Southeast 416 479 11,800 -1,860 Descending Los Angeles Center
06:19PM 34.4686 -119.0297 132° Southeast 356 410 11,000 -540 Descending Los Angeles Center
06:20PM 34.4094 -118.9489 132° Southeast 320 368 10,800 -900 Descending Los Angeles Center
06:21PM 34.3489 -118.8733 134° Southeast 313 360 9,200 -1,500 Descending Los Angeles Center
06:22PM 34.2833 -118.8161 144° Southeast 296 341 7,800 -1,380 Descending Los Angeles Center
06:23PM 34.2500 -118.7325 116° Southeast 278 320 6,400 -1,020 Descending Los Angeles Center
06:24PM 34.2261 -118.6669 114° Southeast 271 312 5,700 -900 Descending Los Angeles Center
06:25PM 34.2094 -118.5550 100° East 247 284 4,600 -840 Descending Los Angeles Center
06:26PM 34.2042 -118.5156 99° East 199 229 4,000 -1,200 Descending Los Angeles Center
06:27PM 34.1997 -118.4572 95° East 159 183 2,200 -1,260 Descending Los Angeles Center
06:28PM 34.1989 -118.4092 91° East 149 171 1,400 -540 Descending Los Angeles Center
06:30PM 34.1989 -118.3550 90° East 148 170 1,000 -360 Descending Los Angeles Center